createdAt,value
2018-11-22T00:01:31.134Z,38.75
2018-11-22T00:03:59.368Z,33.18
2018-11-22T00:06:27.656Z,35.80
2018-11-22T00:08:55.950Z,36.77
2018-11-22T00:11:24.237Z,31.33
2018-11-22T00:13:52.445Z,34.10
2018-11-22T00:16:20.641Z,31.77
2018-11-22T00:18:48.883Z,30.02
2018-11-22T00:21:17.135Z,32.42
2018-11-22T00:23:45.337Z,39.73
2018-11-22T00:26:13.633Z,33.53
2018-11-22T00:28:41.792Z,33.73
2018-11-22T00:31:10.091Z,36.80
2018-11-22T00:33:38.333Z,37.20
2018-11-22T00:36:06.592Z,36.90
2018-11-22T00:38:34.877Z,34.53
2018-11-22T00:41:03.162Z,32.67
2018-11-22T00:43:31.332Z,34.43
2018-11-22T00:45:59.664Z,36.98
2018-11-22T00:48:27.885Z,31.68
2018-11-22T00:50:56.163Z,36.83
2018-11-22T00:53:24.367Z,35.08
2018-11-22T00:55:52.696Z,38.88
2018-11-22T00:58:20.910Z,38.95
2018-11-22T01:00:49.119Z,37.90
2018-11-22T01:03:17.351Z,39.05
2018-11-22T01:05:45.557Z,37.17
2018-11-22T01:08:13.783Z,37.83
2018-11-22T01:10:42.016Z,31.30
2018-11-22T01:13:10.200Z,37.73
2018-11-22T01:15:38.408Z,35.98
2018-11-22T01:18:06.596Z,40.43
2018-11-22T01:20:34.879Z,37.35
2018-11-22T01:23:03.096Z,39.23
2018-11-22T12:18:26.876Z,52.78
2018-11-22T12:20:57.881Z,52.62
2018-11-22T12:23:27.209Z,54.95
2018-11-22T12:25:57.539Z,54.95
2018-11-22T12:28:27.319Z,49.60
2018-11-22T12:31:06.381Z,59.65
2018-11-22T12:33:44.433Z,60.08
2018-11-22T12:36:19.969Z,50.75
2018-11-22T12:38:48.914Z,58.95
2018-11-22T12:41:17.461Z,61.25
2018-11-22T12:43:47.228Z,59.60
2018-11-22T12:46:16.535Z,62.70
2018-11-22T12:48:45.990Z,56.00
2018-11-22T12:51:14.642Z,55.92
2018-11-22T12:53:47.080Z,56.45
2018-11-22T12:56:15.857Z,56.73
2018-11-22T12:58:45.027Z,55.63
2018-11-22T13:01:17.596Z,51.75
2018-11-22T13:03:46.029Z,57.40
2018-11-22T13:06:15.434Z,59.35
2018-11-22T13:08:47.832Z,68.50
2018-11-22T13:11:16.825Z,54.42
2018-11-22T13:13:47.085Z,60.20
2018-11-22T13:16:17.499Z,56.05
2018-11-22T13:18:47.783Z,55.75
2018-11-22T13:21:16.246Z,58.60
2018-11-22T13:23:46.700Z,58.58
2018-11-22T13:26:15.727Z,59.13
2018-11-22T13:28:45.142Z,56.33
2018-11-22T13:31:15.760Z,52.40
2018-11-22T13:33:46.053Z,57.05
2018-11-22T13:36:15.027Z,53.98
2018-11-22T13:38:43.466Z,64.30
2018-11-22T13:41:12.558Z,60.15
2018-11-22T13:43:41.085Z,62.45
2018-11-22T13:46:09.484Z,53.20
2018-11-22T13:48:38.040Z,57.00
2018-11-22T13:51:07.018Z,55.10
2018-11-22T13:53:37.410Z,55.98
2018-11-22T13:56:06.247Z,53.63
2018-11-22T13:58:35.141Z,54.80
2018-11-22T14:01:07.896Z,58.92
2018-11-22T14:03:37.052Z,60.08
2018-11-22T14:06:06.539Z,59.15
2018-11-22T14:08:36.195Z,57.27
2018-11-22T14:11:13.384Z,54.15
2018-11-22T14:13:35.700Z,57.85
2018-11-22T14:16:07.066Z,58.70
2018-11-22T14:18:36.376Z,49.88
2018-11-22T14:21:08.153Z,57.88
2018-11-22T14:23:37.071Z,53.63
2018-11-22T14:26:06.295Z,60.28
2018-11-22T14:28:36.426Z,55.17
2018-11-22T14:31:06.869Z,54.40
2018-11-22T14:33:38.498Z,55.25
2018-11-22T14:36:06.933Z,61.42
2018-11-22T14:38:36.475Z,58.63
2018-11-22T14:41:05.758Z,63.98
2018-11-22T14:43:35.665Z,61.53
2018-11-22T14:46:05.312Z,57.05
2018-11-22T14:48:37.708Z,49.75
2018-11-22T14:51:09.903Z,56.05
2018-11-22T14:53:38.942Z,65.72
2018-11-22T14:56:07.761Z,60.28
2018-11-22T14:58:37.995Z,58.70
2018-11-22T15:01:07.306Z,58.70
2018-11-22T15:03:36.546Z,53.73
2018-11-22T15:06:08.525Z,52.80
2018-11-22T15:08:36.960Z,64.70
2018-11-22T15:11:06.502Z,61.58
2018-11-22T15:13:35.308Z,56.98
2018-11-22T15:16:05.907Z,63.42
2018-11-22T15:18:36.763Z,51.53
2018-11-22T15:21:06.473Z,55.60
2018-11-22T15:23:34.922Z,58.85
2018-11-22T15:26:03.447Z,52.43
2018-11-22T15:28:31.822Z,62.55
2018-11-22T15:31:03.510Z,56.88
2018-11-22T15:33:33.082Z,64.58
2018-11-22T15:36:01.525Z,59.18
2018-11-22T15:38:30.370Z,54.88
2018-11-22T15:40:58.657Z,64.60
2018-11-22T15:43:26.978Z,64.87
2018-11-22T15:45:55.128Z,56.75
2018-11-22T15:48:28.931Z,61.83
2018-11-22T15:50:58.120Z,61.90
2018-11-22T15:53:26.560Z,61.90
2018-11-22T15:55:55.902Z,63.90
2018-11-22T15:58:24.778Z,59.27
2018-11-22T16:00:56.639Z,65.00
2018-11-22T16:03:28.306Z,58.65
2018-11-22T16:05:56.859Z,55.85
2018-11-22T16:08:28.036Z,65.40
2018-11-22T16:10:57.639Z,65.90
2018-11-22T16:13:26.602Z,61.73
2018-11-22T16:15:58.701Z,59.35
2018-11-22T16:18:26.983Z,60.45
2018-11-22T16:20:55.851Z,62.38
2018-11-22T16:23:26.137Z,61.13
2018-11-22T16:25:57.011Z,66.47
2018-11-22T16:28:26.352Z,64.22
2018-11-22T16:30:55.979Z,61.68
2018-11-22T16:33:26.574Z,56.15
2018-11-22T16:35:56.114Z,61.45
2018-11-22T16:38:25.033Z,66.87
2018-11-22T16:40:57.275Z,62.60
2018-11-22T16:43:27.150Z,62.80
2018-11-22T16:45:57.206Z,58.60
2018-11-22T16:48:26.535Z,65.95
2018-11-22T16:50:55.184Z,72.67
2018-11-22T16:53:25.862Z,65.55
2018-11-22T16:55:57.585Z,69.53
2018-11-22T16:58:26.387Z,56.85
2018-11-22T17:00:55.931Z,64.17
2018-11-22T17:03:26.506Z,62.40
2018-11-22T17:05:55.321Z,63.52
2018-11-22T17:08:24.630Z,63.63
2018-11-22T17:10:56.815Z,67.17
2018-11-22T17:13:25.099Z,59.98
2018-11-22T17:15:57.117Z,64.65
2018-11-22T17:18:25.797Z,58.13
2018-11-22T17:20:55.057Z,64.72
2018-11-22T17:23:23.571Z,62.20
2018-11-22T17:25:53.161Z,62.65
2018-11-22T17:28:22.470Z,62.30
2018-11-22T17:30:55.070Z,62.45
2018-11-22T17:33:25.924Z,61.05
2018-11-22T17:35:55.139Z,60.63
2018-11-22T17:38:27.131Z,57.73
2018-11-22T17:40:57.102Z,57.35
2018-11-22T17:43:25.486Z,64.10
2018-11-22T17:45:58.029Z,63.17
2018-11-22T17:48:26.502Z,59.93
2018-11-22T17:50:55.732Z,61.15
2018-11-22T17:53:28.519Z,62.88
2018-11-22T17:55:56.853Z,62.65
2018-11-22T17:58:26.364Z,59.25
2018-11-22T18:00:54.481Z,70.05
2018-11-22T18:03:23.011Z,63.60
2018-11-22T18:05:52.428Z,59.05
2018-11-22T18:08:22.118Z,63.73
2018-11-22T18:10:50.514Z,57.95
2018-11-22T18:13:19.089Z,58.65
2018-11-22T18:15:53.051Z,56.68
2018-11-22T18:18:26.552Z,56.92
2018-11-22T18:20:55.815Z,55.35
2018-11-22T18:23:25.412Z,54.48
2018-11-22T18:25:55.257Z,67.65
2018-11-22T18:28:23.673Z,53.45
2018-11-22T18:30:52.740Z,57.90
2018-11-22T18:33:21.508Z,54.48
2018-11-22T18:35:49.846Z,55.65
2018-11-22T18:38:23.408Z,57.30
2018-11-22T18:40:51.872Z,58.23
2018-11-22T18:43:22.892Z,59.30
2018-11-22T18:45:51.324Z,51.35
2018-11-22T18:48:20.919Z,55.78
2018-11-22T18:50:50.053Z,60.73
2018-11-22T18:53:20.146Z,56.85
2018-11-22T18:55:48.711Z,62.98
2018-11-22T18:58:17.659Z,58.80
2018-11-22T19:00:46.948Z,53.58
2018-11-22T19:03:17.523Z,57.93
2018-11-22T19:05:47.005Z,54.50
2018-11-22T19:08:28.300Z,64.72
2018-11-22T19:10:57.175Z,53.40
2018-11-22T19:13:25.901Z,63.20
2018-11-22T19:15:54.568Z,56.20
2018-11-22T19:18:22.888Z,54.85
2018-11-22T19:21:02.230Z,58.17
2018-11-22T19:23:32.726Z,54.53
2018-11-22T19:26:08.570Z,55.50
2018-11-22T19:28:43.557Z,55.58
2018-11-22T19:31:28.500Z,60.83
2018-11-22T19:37:59.163Z,53.02
2018-11-22T19:40:33.905Z,58.25
2018-11-22T19:43:09.152Z,61.53
2018-11-22T19:45:58.034Z,60.50
2018-11-22T19:48:32.770Z,63.30
2018-11-22T19:54:11.666Z,60.90
2018-11-22T20:10:43.267Z,54.70
2018-11-22T20:13:12.432Z,64.72
2018-11-22T20:15:41.679Z,58.95
2018-11-22T20:18:11.068Z,70.28
2018-11-22T20:20:39.777Z,66.95
2018-11-22T20:23:09.370Z,65.90
2018-11-22T20:25:38.309Z,61.13
2018-11-22T20:28:06.819Z,60.10
2018-11-22T20:30:36.638Z,65.00
2018-11-22T20:33:05.109Z,62.93
2018-11-22T20:35:33.606Z,60.80
2018-11-22T20:38:02.289Z,62.95
2018-11-22T20:40:31.060Z,61.23
2018-11-22T20:42:59.966Z,64.17
2018-11-22T20:45:29.206Z,69.30
2018-11-22T20:47:59.907Z,64.07
2018-11-22T20:53:06.855Z,64.50
2018-11-22T20:55:37.039Z,66.72
2018-11-22T20:58:09.339Z,62.78
2018-11-22T21:00:39.137Z,69.05
2018-11-22T21:03:10.862Z,69.40
2018-11-22T21:05:39.493Z,64.27
2018-11-22T21:17:36.718Z,65.80
2018-11-22T21:20:06.596Z,69.77
2018-11-22T21:22:35.970Z,69.03
2018-11-22T21:25:08.459Z,74.47
2018-11-22T21:27:38.470Z,72.15
2018-11-22T21:30:17.886Z,64.55
2018-11-22T21:32:47.049Z,70.47
2018-11-22T21:35:16.950Z,64.42
2018-11-22T21:37:46.516Z,70.80
2018-11-22T21:40:15.887Z,70.22
2018-11-22T21:42:53.100Z,61.23
2018-11-22T21:45:23.467Z,73.45
2018-11-22T21:47:53.922Z,60.75
2018-11-22T21:50:24.234Z,77.22
2018-11-22T21:53:14.394Z,74.05
2018-11-22T21:59:27.214Z,63.25
2018-11-22T22:02:02.763Z,65.17
2018-11-22T22:04:45.311Z,68.83
2018-11-22T22:31:49.081Z,74.32
2018-11-22T22:34:18.157Z,76.67
2018-11-22T22:36:47.836Z,72.40
2018-11-22T22:39:17.847Z,71.47
2018-11-22T22:44:32.691Z,68.78
2018-11-22T22:47:06.819Z,78.30
2018-11-22T22:49:44.784Z,74.87
2018-11-22T22:52:24.908Z,75.65
2018-11-22T22:54:56.672Z,76.05
2018-11-22T22:57:27.467Z,81.95
2018-11-22T23:00:07.838Z,67.03
2018-11-22T23:02:44.974Z,76.82
2018-11-22T23:06:10.201Z,74.80
2018-11-22T23:09:24.432Z,80.65
2018-11-22T23:12:10.240Z,76.57
2018-11-22T23:14:53.330Z,76.72
2018-11-22T23:17:29.062Z,77.95
2018-11-22T23:20:06.839Z,73.92
2018-11-22T23:25:50.355Z,76.75
2018-11-22T23:34:20.358Z,84.10
2018-11-22T23:36:48.709Z,75.03
2018-11-22T23:39:17.027Z,86.50
2018-11-22T23:41:45.247Z,78.30
2018-11-22T23:44:13.480Z,85.92
2018-11-22T23:46:41.829Z,78.72
2018-11-22T23:49:10.136Z,77.47
2018-11-22T23:51:38.632Z,83.47
2018-11-22T23:54:07.079Z,78.50
2018-11-22T23:56:37.294Z,83.10
2018-11-22T23:59:05.831Z,80.55
